ベロオリゾンテ の空港の天気 - METARとTAF

タンクレド・ネヴェス国際空港 ( SBCF / CNF ) - ブラジル ミナスジェライス州ベロオリゾンテ
飛行場実況気象(Metar)
観測時間06/17 16:00 BRT (06/17 19:00 UTC)
風向・風速東北東 4m/s
視程10km以上
天気現象
全天の8割程度の雲 雲底高度 1220m
気温23℃
湿度47%
気圧1023hPa
METARSBCF 171900Z 07007KT 9999 BKN040 23/11 Q1023
過去の天気等 Google飛行場航空写真 Wunderground天気予報

過去48時間のMETAR

飛行場予報(TAF)
発表時間: 6/17 13:00 BRT (6/17 16:00 UTC)
予報対象時間: 17日15時 BRT ~ 18日15時 BRT
風向・風速東 3m/s
視程10km以上
全天の4割程度の雲 雲底高度 910m
少しの塔状積雲 雲底高度 1070m
17日21時 BRT ~ 17日23時 BRT に徐々に
風向・風速南東 3m/s
視程10km以上
なし
18日7時 BRT ~ 18日9時 BRT に徐々に
風向・風速東南東 3m/s
全天の4割程度の雲 雲底高度 910m
TAF SBCF 171600Z 1718/1818 10005KT 9999 SCT030 FEW035TCU TX25/1718Z T N13/1808Z
BECMG 1800/1802 13005KT CAVOK
BECMG 1810/1812 11006KT SCT030 RMK PDU